Time;durP1;ratioP1;P1;durP2;ratioP2;P2;SDS_P1;SDS_P2;PMS_P1;PMS_P2;Temp;Humidity;BMP_temperature;BMP_pressure;BME280_temperature;BME280_humidity;BME280_pressure;Samples;Min_cycle;Max_cycle;Signal;HPM_P1;HPM_P2
2021/10/24 00:01:28;;;;;;;;;;;;;;;19.21;70.02;101899.97;5027521;28;1894;-41
2021/10/24 00:03:55;;;;;;;;;;;;;;;19.22;69.71;101887.44;5033845;28;2032;-41
2021/10/24 00:06:21;;;;;;;;;;;;;;;19.23;69.44;101892.66;5029097;28;1858;-41
2021/10/24 00:08:49;;;;;;;;;;;;;;;19.25;70.29;101892.56;5024693;28;1948;-41
2021/10/24 00:11:24;;;;;;;;;;;;;;;19.24;70.35;101898.91;5033788;28;1633;-41
2021/10/24 00:13:56;;;;;;;;;;;;;;;19.24;69.55;101901.59;5026128;28;1974;-41
2021/10/24 00:16:26;;;;;;;;;;;;;;;19.24;70.23;101906.97;5029474;28;1534;-41
2021/10/24 00:18:52;;;;;;;;;;;;;;;19.24;69.30;101894.41;5025954;28;1875;-41
2021/10/24 00:21:22;;;;;;;;;;;;;;;19.24;70.44;101907.81;5022261;28;1981;-41
2021/10/24 00:23:49;;;;;;;;;;;;;;;19.21;69.90;101901.78;5031783;28;1747;-41
2021/10/24 00:26:17;;;;;;;;;;;;;;;19.22;70.40;101903.53;5030434;28;1774;-41
2021/10/24 00:28:44;;;;;;;;;;;;;;;19.20;70.41;101913.47;5027172;28;1033;-41
2021/10/24 00:31:16;;;;;;;;;;;;;;;19.19;69.66;101899.22;5028130;28;1821;-41
2021/10/24 00:33:43;;;;;;;;;;;;;;;19.20;69.36;101911.69;5029234;28;1838;-41
2021/10/24 00:36:13;;;;;;;;;;;;;;;19.24;69.60;101923.03;5032827;28;1747;-41
2021/10/24 00:38:40;;;;;;;;;;;;;;;19.22;70.22;101920.47;5032355;28;1781;-41
2021/10/24 00:41:21;;;;;;;;;;;;;;;19.19;69.50;101918.00;5025586;28;1938;-41
2021/10/24 00:43:48;;;;;;;;;;;;;;;19.20;69.87;101919.72;5017473;28;1688;-41
2021/10/24 00:46:23;;;;;;;;;;;;;;;19.22;70.05;101919.63;5020257;28;1539;-41
2021/10/24 00:48:51;;;;;;;;;;;;;;;19.20;70.20;101932.25;5026332;28;2284;-41
2021/10/24 00:51:18;;;;;;;;;;;;;;;19.22;69.84;101938.38;5017389;28;991;-41
2021/10/24 00:53:45;;;;;;;;;;;;;;;19.18;69.00;101935.06;5019765;28;1707;-41
2021/10/24 00:56:21;;;;;;;;;;;;;;;19.18;70.01;101928.81;5023220;28;1596;-41
2021/10/24 00:58:50;;;;;;;;;;;;;;;19.20;68.69;101942.97;5021765;28;1734;-41
2021/10/24 01:01:18;;;;;;;;;;;;;;;19.20;70.19;101943.84;5027235;28;2012;-41
2021/10/24 01:03:48;;;;;;;;;;;;;;;19.21;69.05;101950.91;5024434;28;1623;-41
2021/10/24 01:06:15;;;;;;;;;;;;;;;19.20;69.87;101942.97;5018355;28;1060;-41
2021/10/24 01:08:43;;;;;;;;;;;;;;;19.21;70.06;101939.34;5031856;28;1925;-41
2021/10/24 01:11:11;;;;;;;;;;;;;;;19.21;68.96;101933.97;5021242;28;1788;-41
2021/10/24 01:13:38;;;;;;;;;;;;;;;19.19;69.98;101935.91;5033015;28;2176;-41
2021/10/24 01:16:11;;;;;;;;;;;;;;;19.22;69.31;101947.28;5024023;28;1771;-41
2021/10/24 01:18:41;;;;;;;;;;;;;;;19.20;68.97;101937.59;5032833;28;1675;-41
2021/10/24 01:21:14;;;;;;;;;;;;;;;19.19;69.04;101943.94;5029223;28;1981;-41
2021/10/24 01:23:44;;;;;;;;;;;;;;;19.16;69.70;101941.47;5020280;28;1910;-41
2021/10/24 01:26:17;;;;;;;;;;;;;;;19.16;68.50;101928.06;5032694;28;1704;-41
2021/10/24 01:28:45;;;;;;;;;;;;;;;19.19;68.96;101938.59;5016347;28;1738;-41
2021/10/24 01:31:14;;;;;;;;;;;;;;;19.17;68.37;101938.69;5025082;28;1608;-41
2021/10/24 01:33:40;;;;;;;;;;;;;;;19.14;69.31;101930.88;5033496;28;1444;-41
2021/10/24 01:36:10;;;;;;;;;;;;;;;19.14;69.33;101933.56;5026428;28;1784;-41
2021/10/24 01:38:37;;;;;;;;;;;;;;;19.13;68.57;101930.97;5032154;28;1887;-40
2021/10/24 01:41:08;;;;;;;;;;;;;;;19.17;68.31;101937.84;5024120;28;2010;-41
2021/10/24 01:43:36;;;;;;;;;;;;;;;19.18;68.69;101935.06;5032500;28;1652;-40
2021/10/24 01:46:03;;;;;;;;;;;;;;;19.17;69.02;101946.75;5026532;28;1564;-41
2021/10/24 01:48:31;;;;;;;;;;;;;;;19.14;68.36;101935.34;5028927;28;1587;-41
2021/10/24 01:50:58;;;;;;;;;;;;;;;19.21;69.25;101942.03;5023439;28;1790;-41
2021/10/24 01:53:32;;;;;;;;;;;;;;;19.15;69.45;101931.72;5032372;28;1811;-41
2021/10/24 01:56:09;;;;;;;;;;;;;;;19.17;68.29;101933.31;5032392;28;1784;-41
2021/10/24 01:58:36;;;;;;;;;;;;;;;19.16;68.27;101930.75;5022850;28;1626;-41
2021/10/24 02:01:28;;;;;;;;;;;;;;;19.13;68.20;101925.63;5126191;22;3637;-39
2021/10/24 02:03:54;;;;;;;;;;;;;;;19.12;68.24;101930.13;4968947;28;1616;-41
2021/10/24 02:06:23;;;;;;;;;;;;;;;19.11;68.77;101924.88;4959547;28;2105;-41
2021/10/24 02:09:04;;;;;;;;;;;;;;;19.11;68.06;101927.56;4968277;28;1698;-41
2021/10/24 02:14:12;;;;;;;;;;;;;;;19.16;68.14;101930.75;4970486;28;2760;-41
2021/10/24 02:16:43;;;;;;;;;;;;;;;19.15;69.28;101939.78;4974920;28;1531;-41
2021/10/24 02:19:13;;;;;;;;;;;;;;;19.15;69.06;101931.72;4962537;28;1081;-41
2021/10/24 02:21:41;;;;;;;;;;;;;;;19.11;68.65;101922.19;4959451;28;1981;-41
2021/10/24 02:24:15;;;;;;;;;;;;;;;19.20;68.37;101932.25;4962313;28;1657;-42
2021/10/24 02:26:44;;;;;;;;;;;;;;;19.36;68.31;101937.38;4968207;28;1629;-41
2021/10/24 02:29:12;;;;;;;;;;;;;;;19.45;68.60;101934.91;4963074;28;1709;-41
2021/10/24 02:31:42;;;;;;;;;;;;;;;19.50;67.92;101937.28;4970612;28;1592;-41
2021/10/24 02:34:12;;;;;;;;;;;;;;;19.47;68.11;101938.31;4958775;28;1771;-41
2021/10/24 02:36:42;;;;;;;;;;;;;;;19.42;68.10;101927.09;4957813;28;1136;-41
2021/10/24 02:39:11;;;;;;;;;;;;;;;19.52;67.54;101931.78;4964028;28;1655;-41
2021/10/24 02:41:43;;;;;;;;;;;;;;;19.66;67.58;101932.50;4975438;28;2051;-41
2021/10/24 02:44:10;;;;;;;;;;;;;;;19.69;67.86;101939.47;4957778;28;1878;-41
2021/10/24 02:46:39;;;;;;;;;;;;;;;19.75;67.36;101960.53;4967489;28;1749;-41
2021/10/24 02:49:09;;;;;;;;;;;;;;;19.76;67.85;101962.25;4961714;28;1698;-41
2021/10/24 02:51:39;;;;;;;;;;;;;;;19.83;68.10;101955.44;4961212;28;1150;-41
2021/10/24 02:54:06;;;;;;;;;;;;;;;20.03;66.39;101962.06;4961690;28;1611;-41
2021/10/24 02:56:36;;;;;;;;;;;;;;;20.04;66.84;101971.81;4967867;28;1730;-41
2021/10/24 02:59:08;;;;;;;;;;;;;;;20.01;66.46;101968.50;4966830;28;1714;-41
2021/10/24 03:01:35;;;;;;;;;;;;;;;20.06;67.50;101980.63;4978778;28;1910;-41
2021/10/24 03:04:11;;;;;;;;;;;;;;;20.08;66.95;101976.97;4994106;28;2256;-42
2021/10/24 03:06:41;;;;;;;;;;;;;;;20.05;66.44;101964.63;4981805;28;1893;-41
2021/10/24 03:09:11;;;;;;;;;;;;;;;20.12;66.04;101984.69;4990331;28;1851;-41
2021/10/24 03:11:38;;;;;;;;;;;;;;;20.11;67.40;101985.63;4991177;28;2044;-41
2021/10/24 03:14:08;;;;;;;;;;;;;;;20.11;66.16;101985.63;4975967;28;1465;-41
2021/10/24 03:16:37;;;;;;;;;;;;;;;20.19;65.96;101994.03;4993720;28;1625;-41
2021/10/24 03:19:08;;;;;;;;;;;;;;;20.18;67.13;101988.75;4980114;28;1013;-41
2021/10/24 03:21:37;;;;;;;;;;;;;;;20.16;66.83;101996.91;4982443;28;1974;-41
2021/10/24 03:24:05;;;;;;;;;;;;;;;20.23;65.85;102011.63;4980078;28;1918;-41
2021/10/24 03:26:32;;;;;;;;;;;;;;;20.27;66.63;102005.03;4990862;28;1513;-44
2021/10/24 03:29:02;;;;;;;;;;;;;;;20.21;66.06;102010.88;4989279;28;1628;-41
2021/10/24 03:31:34;;;;;;;;;;;;;;;20.24;66.99;102026.75;4981286;28;1843;-41
2021/10/24 03:34:01;;;;;;;;;;;;;;;20.23;66.14;102019.69;4987803;28;1540;-41
2021/10/24 03:36:31;;;;;;;;;;;;;;;20.25;66.65;102022.22;4993065;28;1246;-41
2021/10/24 03:39:01;;;;;;;;;;;;;;;20.33;65.88;102024.34;4987587;28;1726;-41
2021/10/24 03:44:12;;;;;;;;;;;;;;;20.30;65.63;102033.50;4980641;28;2440;-41
2021/10/24 03:46:44;;;;;;;;;;;;;;;20.34;66.36;102020.72;4979504;28;1824;-41
2021/10/24 03:49:14;;;;;;;;;;;;;;;20.39;66.51;102023.88;4990775;28;2055;-41
2021/10/24 03:51:41;;;;;;;;;;;;;;;20.41;66.25;102043.44;4987206;28;1486;-43
2021/10/24 03:54:07;;;;;;;;;;;;;;;20.44;65.65;102038.69;4984351;28;1556;-41
2021/10/24 03:56:43;;;;;;;;;;;;;;;20.35;66.67;102028.66;4982135;28;1537;-41
2021/10/24 03:59:13;;;;;;;;;;;;;;;20.15;66.36;102035.47;4985060;28;1497;-41
2021/10/24 04:01:42;;;;;;;;;;;;;;;20.08;67.21;102026.16;4985088;28;1750;-41
2021/10/24 04:04:11;;;;;;;;;;;;;;;20.03;66.52;102029.19;4990308;28;1973;-41
2021/10/24 04:06:39;;;;;;;;;;;;;;;20.01;66.37;102036.47;4987161;28;1338;-41
2021/10/24 04:09:05;;;;;;;;;;;;;;;19.92;67.64;102030.94;4990389;28;1751;-43
2021/10/24 04:11:36;;;;;;;;;;;;;;;19.83;66.89;102038.66;4991080;28;1501;-41
2021/10/24 04:14:02;;;;;;;;;;;;;;;19.80;66.85;102022.78;4990463;28;1542;-41
2021/10/24 04:16:32;;;;;;;;;;;;;;;19.75;68.02;102024.94;4991554;28;1774;-41
2021/10/24 04:19:05;;;;;;;;;;;;;;;19.73;67.85;102029.56;4991554;28;1682;-41
2021/10/24 04:21:35;;;;;;;;;;;;;;;19.71;68.34;102033.28;4989266;28;1797;-41
2021/10/24 04:26:43;;;;;;;;;;;;;;;19.63;68.18;102047.25;4987719;28;1718;-41
2021/10/24 04:29:19;;;;;;;;;;;;;;;19.64;67.79;102051.66;4991846;28;1914;-41
2021/10/24 04:31:46;;;;;;;;;;;;;;;19.65;68.06;102039.94;4992560;28;1553;-41
2021/10/24 04:34:26;;;;;;;;;;;;;;;19.65;69.46;102064.09;4990253;28;1657;-41
2021/10/24 04:36:55;;;;;;;;;;;;;;;19.60;69.86;102048.34;4987255;28;1531;-41
2021/10/24 04:39:31;;;;;;;;;;;;;;;19.62;69.58;102045.56;4991384;28;1585;-41
2021/10/24 04:42:00;;;;;;;;;;;;;;;19.62;69.08;102045.56;4986969;28;1910;-41
2021/10/24 04:44:26;;;;;;;;;;;;;;;19.64;68.15;102054.34;4992476;28;1705;-41
2021/10/24 04:46:54;;;;;;;;;;;;;;;19.63;68.30;102048.09;4986444;28;1687;-41
2021/10/24 04:49:23;;;;;;;;;;;;;;;19.58;68.50;102039.53;4989394;28;1613;-42
2021/10/24 04:51:52;;;;;;;;;;;;;;;19.60;69.45;102040.28;4992905;28;2026;-42
2021/10/24 04:54:23;;;;;;;;;;;;;;;19.58;69.15;102044.06;4989042;28;1947;-42
2021/10/24 04:56:51;;;;;;;;;;;;;;;19.58;69.46;102036.84;4992375;28;1712;-42
2021/10/24 04:59:23;;;;;;;;;;;;;;;19.60;69.03;102068.94;4988747;28;1725;-42
2021/10/24 05:01:49;;;;;;;;;;;;;;;19.53;69.03;102070.34;4989421;28;1621;-42
2021/10/24 05:04:18;;;;;;;;;;;;;;;19.53;69.94;102089.13;4991296;28;1906;-42
2021/10/24 05:06:50;;;;;;;;;;;;;;;19.51;70.05;102091.03;4992554;28;1335;-42
2021/10/24 05:09:19;;;;;;;;;;;;;;;19.47;70.17;102091.25;4991242;28;2176;-42
2021/10/24 05:11:56;;;;;;;;;;;;;;;19.47;68.99;102085.03;4990854;28;1762;-43
2021/10/24 05:14:22;;;;;;;;;;;;;;;19.47;69.73;102093.06;4981583;28;1598;-42
2021/10/24 05:16:49;;;;;;;;;;;;;;;19.46;69.19;102096.75;4989158;28;1749;-42
2021/10/24 05:19:19;;;;;;;;;;;;;;;19.44;69.99;102112.94;4990047;28;10322;-42
2021/10/24 05:21:48;;;;;;;;;;;;;;;19.47;69.45;102114.53;4991851;28;1941;-43
2021/10/24 05:24:17;;;;;;;;;;;;;;;19.50;69.80;102116.16;4985967;28;2740;-42
2021/10/24 05:26:44;;;;;;;;;;;;;;;19.41;69.16;102102.41;4989579;28;1689;-41
2021/10/24 05:29:14;;;;;;;;;;;;;;;19.43;69.71;102105.84;4986686;28;1627;-41
2021/10/24 05:31:44;;;;;;;;;;;;;;;19.43;70.08;102118.41;4984982;28;1588;-42
2021/10/24 05:34:13;;;;;;;;;;;;;;;19.39;69.60;102103.47;4985862;28;2120;-41
2021/10/24 05:36:49;;;;;;;;;;;;;;;19.41;69.93;102129.22;4984474;28;1426;-41
2021/10/24 05:39:18;;;;;;;;;;;;;;;19.45;69.76;102133.41;4986379;28;1639;-41
2021/10/24 05:41:48;;;;;;;;;;;;;;;19.44;70.06;102136.22;4982272;28;1782;-41
2021/10/24 05:44:19;;;;;;;;;;;;;;;19.46;71.38;102145.88;4988064;28;1914;-42
2021/10/24 05:47:09;;;;;;;;;;;;;;;19.51;71.00;102155.44;4987703;28;1561;-42
2021/10/24 05:49:36;;;;;;;;;;;;;;;19.44;71.41;102161.22;4983391;28;1689;-42
2021/10/24 05:52:17;;;;;;;;;;;;;;;19.38;70.17;102167.00;4988955;28;1444;-42
2021/10/24 05:54:48;;;;;;;;;;;;;;;19.38;70.48;102169.69;4985590;28;1719;-42
2021/10/24 05:57:18;;;;;;;;;;;;;;;19.39;70.38;102174.09;4986853;28;1764;-42
2021/10/24 05:59:45;;;;;;;;;;;;;;;19.41;71.23;102179.34;4989177;28;1820;-42
2021/10/24 06:02:12;;;;;;;;;;;;;;;19.34;71.58;102181.59;4988105;28;1754;-41
2021/10/24 06:04:40;;;;;;;;;;;;;;;19.36;71.25;102179.66;4984381;28;1910;-42
2021/10/24 06:07:06;;;;;;;;;;;;;;;19.36;72.00;102182.34;4985970;28;1624;-42
2021/10/24 06:09:41;;;;;;;;;;;;;;;19.36;71.71;102189.50;4989413;28;1614;-41
2021/10/24 06:12:42;;;;;;;;;;;;;;;19.38;71.75;102192.97;4981797;28;1614;-41
2021/10/24 06:15:13;;;;;;;;;;;;;;;19.28;71.99;102187.38;4990049;28;1636;-41
2021/10/24 06:17:40;;;;;;;;;;;;;;;19.41;71.80;102201.66;4988698;28;1518;-41
2021/10/24 06:20:15;;;;;;;;;;;;;;;19.36;71.97;102206.50;4986206;28;1697;-41
2021/10/24 06:22:43;;;;;;;;;;;;;;;19.38;72.13;102199.19;4986618;28;1985;-42
2021/10/24 06:25:10;;;;;;;;;;;;;;;19.40;71.67;102209.84;4985604;28;2052;-41
2021/10/24 06:27:39;;;;;;;;;;;;;;;19.36;71.76;102219.03;4982261;28;1561;-41
2021/10/24 06:30:10;;;;;;;;;;;;;;;19.32;71.56;102221.06;4984112;28;1500;-42
2021/10/24 06:32:40;;;;;;;;;;;;;;;19.29;71.61;102242.72;4984301;28;1568;-41
2021/10/24 06:35:07;;;;;;;;;;;;;;;19.34;70.92;102224.50;4985574;28;1614;-41
2021/10/24 06:37:43;;;;;;;;;;;;;;;19.33;72.25;102236.19;4988463;28;1454;-41
2021/10/24 06:40:10;;;;;;;;;;;;;;;19.38;71.22;102235.91;4983367;28;1633;-41
2021/10/24 06:45:27;;;;;;;;;;;;;;;19.32;72.76;102252.38;4988384;28;2482;-41
2021/10/24 06:47:57;;;;;;;;;;;;;;;19.29;72.64;102240.03;4992298;28;2250;-41
2021/10/24 06:50:25;;;;;;;;;;;;;;;19.27;71.78;102279.50;4992155;28;1496;-41
2021/10/24 06:53:01;;;;;;;;;;;;;;;19.31;72.32;102256.03;4995169;28;1474;-41
2021/10/24 06:55:30;;;;;;;;;;;;;;;19.26;72.64;102259.03;4985144;28;1693;-41
2021/10/24 06:58:02;;;;;;;;;;;;;;;19.26;72.37;102253.66;4991448;28;2064;-42
2021/10/24 07:00:31;;;;;;;;;;;;;;;19.28;72.68;102279.41;4991311;28;1669;-42
2021/10/24 07:03:00;;;;;;;;;;;;;;;19.31;71.64;102256.88;4990976;28;1911;-41
2021/10/24 07:05:30;;;;;;;;;;;;;;;19.31;71.42;102256.88;4992441;28;3647;-50
2021/10/24 07:07:59;;;;;;;;;;;;;;;19.34;71.53;102277.28;4991460;28;1458;-51
2021/10/24 07:10:28;;;;;;;;;;;;;;;19.33;71.80;102286.31;4991841;28;1897;-50
2021/10/24 07:12:57;;;;;;;;;;;;;;;19.33;72.30;102276.41;4993422;28;2023;-51
2021/10/24 07:15:36;;;;;;;;;;;;;;;19.42;71.23;102285.72;4985067;28;1723;-49
2021/10/24 07:18:05;;;;;;;;;;;;;;;19.42;72.09;102269.59;4991234;28;1517;-50
2021/10/24 07:20:34;;;;;;;;;;;;;;;19.44;72.47;102279.28;4991796;28;1658;-51
2021/10/24 07:23:01;;;;;;;;;;;;;;;19.45;72.13;102275.59;4992527;28;1910;-51
2021/10/24 07:25:30;;;;;;;;;;;;;;;19.47;71.93;102262.94;4989386;28;1677;-50
2021/10/24 07:27:57;;;;;;;;;;;;;;;19.52;70.75;102302.03;4990937;28;1907;-50
2021/10/24 07:30:25;;;;;;;;;;;;;;;19.55;71.53;102309.88;4988129;28;1737;-49
2021/10/24 07:32:56;;;;;;;;;;;;;;;19.55;71.62;102289.28;4987459;28;1876;-50
2021/10/24 07:35:23;;;;;;;;;;;;;;;19.52;70.97;102289.50;4990741;28;1762;-49
2021/10/24 07:37:49;;;;;;;;;;;;;;;19.54;70.67;102284.03;4985888;28;1533;-51
2021/10/24 07:40:18;;;;;;;;;;;;;;;19.57;72.19;102305.28;4989562;28;1773;-50
2021/10/24 07:42:45;;;;;;;;;;;;;;;19.58;71.60;102315.06;4994366;28;1474;-51
2021/10/24 07:45:12;;;;;;;;;;;;;;;19.52;71.12;102291.28;4990431;28;1902;-50
2021/10/24 07:47:43;;;;;;;;;;;;;;;19.48;71.85;102288.84;4989893;28;1765;-50
2021/10/24 07:50:13;;;;;;;;;;;;;;;19.53;71.78;102304.63;4986261;28;1632;-49
2021/10/24 07:52:40;;;;;;;;;;;;;;;19.54;72.55;102306.34;4993440;28;1380;-48
2021/10/24 07:55:07;;;;;;;;;;;;;;;19.34;70.36;102314.84;4992692;28;2014;-48
2021/10/24 07:57:34;;;;;;;;;;;;;;;19.32;72.04;102306.03;4990597;28;1609;-48
2021/10/24 08:00:07;;;;;;;;;;;;;;;19.44;71.48;102307.94;4989620;28;1576;-48
2021/10/24 08:02:36;;;;;;;;;;;;;;;19.44;72.32;102306.09;4988561;28;1609;-48
2021/10/24 08:05:14;;;;;;;;;;;;;;;19.47;71.14;102310.41;4989791;28;2219;-50
2021/10/24 08:07:53;;;;;;;;;;;;;;;19.50;72.45;102328.09;4990783;28;1314;-50
2021/10/24 08:10:21;;;;;;;;;;;;;;;19.51;71.82;102336.06;4988225;28;1537;-46
2021/10/24 08:12:47;;;;;;;;;;;;;;;19.50;72.78;102309.31;4985739;28;1502;-48
2021/10/24 08:15:15;;;;;;;;;;;;;;;19.52;71.85;102318.13;4987758;28;1670;-48
2021/10/24 08:17:43;;;;;;;;;;;;;;;19.48;72.47;102318.34;4987231;28;1648;-47
2021/10/24 08:20:10;;;;;;;;;;;;;;;19.48;72.03;102318.34;4981102;28;2054;-47
2021/10/24 08:22:36;;;;;;;;;;;;;;;19.47;72.05;102324.66;4989780;28;1519;-47
2021/10/24 08:25:17;;;;;;;;;;;;;;;19.53;71.21;102325.22;4986403;28;1983;-47
2021/10/24 08:27:47;;;;;;;;;;;;;;;19.55;71.77;102340.25;4991176;28;1624;-47
2021/10/24 08:30:23;;;;;;;;;;;;;;;19.53;72.56;102341.34;4979293;28;1930;-47
2021/10/24 08:32:56;;;;;;;;;;;;;;;19.55;71.50;102339.41;4992072;28;2053;-48
2021/10/24 08:35:26;;;;;;;;;;;;;;;19.51;72.29;102348.63;4970876;28;1597;-47
2021/10/24 08:37:55;;;;;;;;;;;;;;;19.51;71.90;102333.38;4990369;28;1485;-47
2021/10/24 08:40:25;;;;;;;;;;;;;;;19.56;73.12;102357.25;4992320;28;1847;-47
2021/10/24 08:42:58;;;;;;;;;;;;;;;19.53;72.99;102349.38;4984204;28;1661;-47
2021/10/24 08:45:33;;;;;;;;;;;;;;;19.51;72.76;102364.72;4986103;28;1914;-46
2021/10/24 08:48:03;;;;;;;;;;;;;;;19.51;71.80;102368.25;4983647;28;1592;-47
2021/10/24 08:50:29;;;;;;;;;;;;;;;19.52;72.22;102350.31;4990317;28;1549;-47
2021/10/24 08:52:56;;;;;;;;;;;;;;;19.49;72.83;102362.13;4993493;28;1900;-47
2021/10/24 08:55:27;;;;;;;;;;;;;;;19.45;73.25;102361.47;4988448;28;1695;-47
2021/10/24 08:57:54;;;;;;;;;;;;;;;19.44;73.20;102359.75;4990132;28;1559;-46
2021/10/24 09:00:23;;;;;;;;;;;;;;;18.97;59.95;102366.31;4987426;28;1785;-47
2021/10/24 09:02:59;;;;;;;;;;;;;;;19.08;71.14;102369.19;4986446;28;1735;-47
2021/10/24 09:05:41;;;;;;;;;;;;;;;19.27;70.89;102376.06;4981626;28;2045;-47
2021/10/24 09:08:09;;;;;;;;;;;;;;;19.36;71.09;102362.06;4977387;28;1529;-47
2021/10/24 09:10:42;;;;;;;;;;;;;;;19.38;71.09;102370.03;4988019;28;1571;-47
2021/10/24 09:13:10;;;;;;;;;;;;;;;19.38;71.05;102349.44;4989173;28;1573;-46
2021/10/24 09:15:50;;;;;;;;;;;;;;;19.39;71.89;102352.97;4987099;28;1776;-47
2021/10/24 09:18:18;;;;;;;;;;;;;;;19.42;72.03;102369.72;4987371;28;1796;-47
2021/10/24 09:20:47;;;;;;;;;;;;;;;19.42;72.28;102361.69;4988414;28;1640;-47
2021/10/24 09:23:14;;;;;;;;;;;;;;;19.43;71.69;102359.84;4990436;28;1639;-48
2021/10/24 09:28:58;;;;;;;;;;;;;;;19.42;72.41;102369.72;4990606;28;1529;-47
2021/10/24 09:31:30;;;;;;;;;;;;;;;19.39;71.24;102371.75;4986032;28;1653;-47
2021/10/24 09:34:10;;;;;;;;;;;;;;;19.41;72.76;102380.53;4991700;28;1648;-47
2021/10/24 09:36:49;;;;;;;;;;;;;;;19.37;72.53;102374.50;4992053;28;1431;-47
2021/10/24 09:39:17;;;;;;;;;;;;;;;19.42;71.42;102388.50;4984251;28;1520;-46
2021/10/24 09:45:05;;;;;;;;;;;;;;;19.48;71.52;102371.16;4982635;28;1989;-47
2021/10/24 09:47:32;;;;;;;;;;;;;;;19.48;70.62;102376.53;4982843;28;1598;-47
2021/10/24 09:49:58;;;;;;;;;;;;;;;19.48;71.68;102371.16;4984348;28;1509;-47
2021/10/24 09:52:28;;;;;;;;;;;;;;;19.46;71.10;102360.50;4979617;28;1443;-47
2021/10/24 09:54:57;;;;;;;;;;;;;;;19.43;71.97;102376.78;4982470;28;1574;-48
2021/10/24 09:57:32;;;;;;;;;;;;;;;19.46;71.54;102384.66;4982637;28;1668;-47
2021/10/24 10:00:00;;;;;;;;;;;;;;;19.55;71.75;102371.59;4977487;28;1537;-49
2021/10/24 10:02:27;;;;;;;;;;;;;;;19.62;71.35;102364.88;4987359;28;1958;-45
2021/10/24 10:04:56;;;;;;;;;;;;;;;19.58;71.94;102382.16;4980679;28;1989;-45
2021/10/24 10:07:24;;;;;;;;;;;;;;;19.55;71.82;102383.19;4992692;28;1489;-45
2021/10/24 10:09:51;;;;;;;;;;;;;;;19.51;71.06;102353.97;4984189;28;10833;-44
2021/10/24 10:12:20;;;;;;;;;;;;;;;19.50;71.64;102377.28;4985030;28;1742;-45
2021/10/24 10:14:49;;;;;;;;;;;;;;;19.60;70.59;102391.81;4988853;28;1713;-44
2021/10/24 10:17:20;;;;;;;;;;;;;;;19.78;69.99;102392.47;4988092;28;1627;-46
2021/10/24 10:19:48;;;;;;;;;;;;;;;19.63;71.45;102375.50;4989643;28;1602;-46
2021/10/24 10:22:31;;;;;;;;;;;;;;;19.52;71.02;102374.47;4990619;28;1590;-46
2021/10/24 10:24:59;;;;;;;;;;;;;;;19.48;70.02;102376.53;4993625;28;1910;-45
2021/10/24 10:27:47;;;;;;;;;;;;;;;19.48;71.17;102377.38;4991262;28;1677;-45
2021/10/24 10:30:34;;;;;;;;;;;;;;;19.45;72.73;102372.19;4989124;28;1623;-46
2021/10/24 10:33:04;;;;;;;;;;;;;;;19.43;72.17;102395.56;4993614;28;1922;-46
2021/10/24 10:35:36;;;;;;;;;;;;;;;19.38;72.27;102352.09;4994041;28;1667;-46
2021/10/24 10:38:04;;;;;;;;;;;;;;;19.41;71.95;102375.19;4996676;28;1683;-48
2021/10/24 10:40:33;;;;;;;;;;;;;;;19.41;72.46;102375.19;4988820;28;1553;-45
2021/10/24 10:43:02;;;;;;;;;;;;;;;19.37;72.65;102369.16;4989997;28;1548;-46
2021/10/24 10:45:38;;;;;;;;;;;;;;;19.36;72.40;102367.44;4992233;28;1921;-46
2021/10/24 10:48:10;;;;;;;;;;;;;;;19.39;72.27;102363.69;4993606;28;1751;-45
2021/10/24 10:50:47;;;;;;;;;;;;;;;19.37;71.53;102379.88;4990634;28;1823;-46
2021/10/24 10:53:28;;;;;;;;;;;;;;;19.39;72.51;102375.28;4993567;28;1620;-45
2021/10/24 10:56:11;;;;;;;;;;;;;;;19.36;72.15;102359.41;4994877;28;2255;-46
2021/10/24 10:58:42;;;;;;;;;;;;;;;19.40;72.23;102365.44;4958239;28;1581;-46
2021/10/24 11:01:25;;;;;;;;;;;;;;;19.35;71.48;102365.69;4991927;28;1529;-45
2021/10/24 11:03:52;;;;;;;;;;;;;;;19.39;71.67;102361.88;4991133;28;1516;-47
2021/10/24 11:06:44;;;;;;;;;;;;;;;19.38;71.13;102357.47;4986112;28;1903;-45
2021/10/24 11:09:12;;;;;;;;;;;;;;;19.40;71.94;102346.66;4988110;28;1909;-46
2021/10/24 11:12:00;;;;;;;;;;;;;;;19.37;71.90;102369.16;4987990;28;1520;-45
2021/10/24 11:14:49;;;;;;;;;;;;;;;19.39;70.95;102361.88;4992882;28;1945;-46
2021/10/24 11:17:39;;;;;;;;;;;;;;;19.41;70.86;102362.63;4987302;28;1789;-46
2021/10/24 11:20:20;;;;;;;;;;;;;;;19.41;72.11;102338.47;4988787;28;1765;-45
2021/10/24 11:22:52;;;;;;;;;;;;;;;19.43;70.64;102358.00;4991550;28;1380;-47
2021/10/24 11:25:30;;;;;;;;;;;;;;;19.45;70.82;102340.00;4987931;28;1976;-43
2021/10/24 11:27:57;;;;;;;;;;;;;;;19.47;71.42;102345.28;4990637;28;1887;-43
2021/10/24 11:30:28;;;;;;;;;;;;;;;19.44;71.57;102332.06;4993362;28;1912;-43
2021/10/24 11:33:00;;;;;;;;;;;;;;;19.47;71.69;102340.75;4992562;28;1548;-44
2021/10/24 11:35:29;;;;;;;;;;;;;;;19.45;70.79;102361.47;4984957;28;1527;-43
2021/10/24 11:37:58;;;;;;;;;;;;;;;19.46;71.76;102352.47;4994996;28;1578;-43
2021/10/24 11:40:29;;;;;;;;;;;;;;;19.52;71.15;102334.22;4986216;28;2049;-44
2021/10/24 11:43:07;;;;;;;;;;;;;;;19.50;71.68;102346.88;4988087;28;1990;-45
2021/10/24 11:45:38;;;;;;;;;;;;;;;19.46;70.62;102355.16;4993529;28;1902;-43
2021/10/24 11:48:10;;;;;;;;;;;;;;;19.48;71.51;102334.44;4979484;28;1901;-43
2021/10/24 11:50:49;;;;;;;;;;;;;;;19.45;71.49;102339.16;4988582;28;1682;-44
2021/10/24 11:53:24;;;;;;;;;;;;;;;19.45;71.50;102350.72;4993132;28;1582;-43
2021/10/24 11:55:52;;;;;;;;;;;;;;;19.48;70.26;102337.13;4987276;28;1666;-44
2021/10/24 12:04:00;;;;;;;;;;;;;;;19.48;71.61;102350.53;4987632;28;2312;-44
2021/10/24 12:06:45;;;;;;;;;;;;;;;19.46;70.58;102363.19;4993344;28;1924;-43
2021/10/24 12:09:15;;;;;;;;;;;;;;;19.43;71.77;102339.25;4990669;28;1641;-44
2021/10/24 12:11:43;;;;;;;;;;;;;;;19.45;70.38;102352.56;4987303;28;1631;-43
2021/10/24 12:14:10;;;;;;;;;;;;;;;19.46;70.93;102336.38;4990561;28;1577;-43
2021/10/24 12:16:41;;;;;;;;;;;;;;;19.45;70.61;102360.59;4991614;28;1589;-43
2021/10/24 12:19:26;;;;;;;;;;;;;;;19.43;68.98;102336.56;4994439;28;1657;-43
2021/10/24 12:22:26;;;;;;;;;;;;;;;19.52;65.66;102353.91;4992377;28;1496;-45
2021/10/24 12:25:02;;;;;;;;;;;;;;;19.53;68.13;102354.75;4983075;28;2026;-46
2021/10/24 12:27:31;;;;;;;;;;;;;;;19.56;67.93;102357.25;4982318;28;2692;-46
2021/10/24 12:29:59;;;;;;;;;;;;;;;19.56;67.69;102351.88;4985115;28;1825;-47
2021/10/24 12:32:26;;;;;;;;;;;;;;;19.56;68.61;102344.69;4984490;28;1905;-47
2021/10/24 12:35:00;;;;;;;;;;;;;;;19.59;67.45;102362.38;4987787;28;1733;-46
2021/10/24 12:37:30;;;;;;;;;;;;;;;19.57;68.20;102342.84;4992942;28;1841;-40
2021/10/24 12:40:17;;;;;;;;;;;;;;;19.55;67.04;102355.50;4985913;28;1623;-41
2021/10/24 12:42:46;;;;;;;;;;;;;;;19.54;67.27;102356.47;4991502;28;1741;-40
2021/10/24 12:45:19;;;;;;;;;;;;;;;19.53;67.10;102354.75;4990209;28;1969;-41
2021/10/24 12:47:55;;;;;;;;;;;;;;;19.53;67.10;102352.06;4989305;28;1896;-41
2021/10/24 12:50:29;;;;;;;;;;;;;;;19.52;66.48;102355.69;4981540;28;1594;-40
2021/10/24 12:53:03;;;;;;;;;;;;;;;19.57;67.77;102343.69;4993105;28;1839;-40
2021/10/24 12:55:34;;;;;;;;;;;;;;;19.54;66.11;102361.84;4993092;28;1493;-40
2021/10/24 12:58:02;;;;;;;;;;;;;;;19.54;66.82;102341.25;4988899;28;2089;-41
2021/10/24 13:00:29;;;;;;;;;;;;;;;19.53;66.85;102346.69;4990930;28;1690;-41
2021/10/24 13:02:55;;;;;;;;;;;;;;;19.53;66.17;102354.75;4986331;28;1781;-41
2021/10/24 13:05:25;;;;;;;;;;;;;;;19.55;67.34;102356.34;4988456;28;2077;-40
2021/10/24 13:07:52;;;;;;;;;;;;;;;19.53;66.20;102341.34;4981271;28;1882;-41
2021/10/24 13:10:18;;;;;;;;;;;;;;;19.56;66.58;102351.88;4990564;28;1541;-41
2021/10/24 13:12:51;;;;;;;;;;;;;;;19.50;66.26;102346.88;4991221;28;1639;-41
2021/10/24 13:15:18;;;;;;;;;;;;;;;19.54;65.78;102367.22;4985276;28;1545;-40
2021/10/24 13:17:47;;;;;;;;;;;;;;;19.51;64.65;102343.25;4990789;28;1581;-40
2021/10/24 13:20:17;;;;;;;;;;;;;;;19.53;66.28;102346.69;4990089;28;1594;-40
2021/10/24 13:22:57;;;;;;;;;;;;;;;19.52;66.78;102355.69;4987415;28;1765;-40
2021/10/24 13:25:24;;;;;;;;;;;;;;;19.51;65.49;102362.88;4990474;28;2014;-40
2021/10/24 13:27:54;;;;;;;;;;;;;;;19.75;65.15;102357.75;4990025;28;1830;-41
2021/10/24 13:30:31;;;;;;;;;;;;;;;19.75;65.89;102352.41;4978844;28;1583;-40